This is the latest recevied weather packets stored in our database for station/object W5HKR. If no packets are shown the sender has not sent any weather packets the latest 10 day(s).
| Time | Temp. | Humidity | Pressure | Rain* | Wind** | Luminosity | Snow |
|---|---|---|---|---|---|---|---|
| 1777902810 | 18.33° C | 91% | 990.6 hPa | 0 mm | - | - | - |
| 1777902508 | 18.89° C | 79% | 987.1 hPa | 0 mm | - | - | - |
| 1777902208 | 18.33° C | 91% | 990.6 hPa | 0 mm | - | - | - |
| 1777901909 | 18.33° C | 91% | 990.6 hPa | 0 mm | - | - | - |
| 1777901609 | 18.33° C | 91% | 990.6 hPa | 0 mm | - | - | - |
| 1777901308 | 18.33° C | 91% | 990.6 hPa | 0 mm | - | - | - |
| 1777901009 | 17.22° C | 84% | 986.8 hPa | 0 mm | - | - | - |
| 1777900919 | 17.22° C | 85% | 987.1 hPa | 0 mm | - | - | - |
| 1777900709 | 16.67° C | 86% | 986.9 hPa | 0 mm | - | - | - |
| 1777900408 | 18.33° C | 91% | 990.6 hPa | 0 mm | - | - | - |
| 1777900109 | 18.33° C | 91% | 990.6 hPa | 0 mm | - | - | - |
| 1777899808 | 15.56° C | 89% | 987.1 hPa | 0 mm | - | - | - |
| 1777899509 | 18.33° C | 91% | 990.6 hPa | 0 mm | - | - | - |
| 1777899208 | 18.33° C | 91% | 990.6 hPa | 0 mm | - | - | - |
| 1777898910 | 15.56° C | 89% | 986.8 hPa | 0 mm | - | - | - |
| 1777898609 | 15.56° C | 89% | 986.7 hPa | 0 mm | - | - | - |
| 1777898309 | 15.56° C | 90% | 986.5 hPa | 0 mm | - | - | - |
| 1777898008 | 18.33° C | 91% | 990.6 hPa | 0 mm | - | - | - |
| 1777897679 | 15° C | 91% | 986.5 hPa | 0 mm | - | - | - |
| 1777897409 | 18.33° C | 91% | 990.6 hPa | 0 mm | - | - | - |
| 1777897109 | 15° C | 91% | 986.5 hPa | 0 mm | - | - | - |
| 1777896809 | 18.33° C | 91% | 990.6 hPa | 0 mm | - | - | - |
| 1777896600 | 18.33° C | 91% | 990.6 hPa | 0 mm | - | - | - |
| 1777896509 | 15° C | 90% | 986.3 hPa | 0 mm | - | - | - |
| 1777895909 | 18.33° C | 91% | 990.6 hPa | 0 mm | - | - | - |
* Rain latest hour (hover to see other rain measurements)
** Current wind speed in m/s (hover to see current wind gust speed)